Time;durP1;ratioP1;P1;durP2;ratioP2;P2;SDS_P1;SDS_P2;PMS_P1;PMS_P2;Temp;Humidity;BMP_temperature;BMP_pressure;BME280_temperature;BME280_humidity;BME280_pressure;Samples;Min_cycle;Max_cycle;Signal;HPM_P1;HPM_P2
2022/03/21 00:03:56;;;;;;;36.15;18.45;;;;;;;8.16;100.00;101911.81;8253673;28;20494;-64
2022/03/21 00:07:57;;;;;;;37.72;18.80;;;;;;;8.01;100.00;101917.16;8255714;28;20057;-64
2022/03/21 00:11:57;;;;;;;35.25;18.45;;;;;;;8.02;100.00;101908.13;8255174;28;20529;-64
2022/03/21 00:15:58;;;;;;;35.85;17.38;;;;;;;8.11;100.00;101913.94;8252497;28;20045;-64
2022/03/21 00:19:58;;;;;;;32.00;16.95;;;;;;;7.92;100.00;101917.69;8261093;28;20030;-64
2022/03/21 00:23:59;;;;;;;40.70;19.27;;;;;;;8.08;100.00;101931.09;8284306;28;20042;-64
2022/03/21 00:27:59;;;;;;;36.70;18.98;;;;;;;8.08;100.00;101928.41;8279685;28;20058;-64
2022/03/21 00:32:00;;;;;;;39.83;18.80;;;;;;;8.03;100.00;101920.59;8253732;28;20566;-64
2022/03/21 00:36:01;;;;;;;35.63;17.33;;;;;;;8.11;100.00;101916.63;8254585;28;20414;-64
2022/03/21 00:40:03;;;;;;;34.63;17.63;;;;;;;8.11;100.00;101912.06;8265689;28;20050;-64
2022/03/21 00:44:04;;;;;;;34.60;17.92;;;;;;;8.27;100.00;101922.84;8271118;28;20082;-64
2022/03/21 00:48:05;;;;;;;34.90;17.85;;;;;;;8.26;100.00;101913.06;8284011;28;20066;-64
2022/03/21 00:52:06;;;;;;;35.13;17.67;;;;;;;8.26;100.00;101926.53;8262073;28;20042;-65
2022/03/21 00:56:06;;;;;;;33.55;17.58;;;;;;;8.25;100.00;101919.38;8270249;28;20038;-65
2022/03/21 01:00:12;;;;;;;44.53;20.50;;;;;;;7.96;100.00;101924.63;8253811;28;20034;-65
2022/03/21 01:04:12;;;;;;;39.30;17.98;;;;;;;8.07;100.00;101932.09;8253766;28;20046;-65
2022/03/21 01:08:13;;;;;;;39.35;19.70;;;;;;;7.90;100.00;101933.06;8252758;28;20049;-65
2022/03/21 01:12:14;;;;;;;33.55;17.58;;;;;;;7.84;100.00;101940.66;8253715;28;20387;-64
2022/03/21 01:16:15;;;;;;;37.95;18.25;;;;;;;7.67;100.00;101936.22;8253242;28;20153;-64
2022/03/21 01:20:18;;;;;;;38.13;20.00;;;;;;;7.50;100.00;101930.03;8262376;28;20065;-64
2022/03/21 01:24:18;;;;;;;40.35;19.38;;;;;;;7.55;100.00;101933.34;8240908;28;20509;-64
2022/03/21 01:28:19;;;;;;;35.97;18.98;;;;;;;7.74;100.00;101940.28;8237607;28;20125;-64
2022/03/21 01:32:20;;;;;;;35.50;18.20;;;;;;;7.74;100.00;101940.28;8267845;28;20046;-65
2022/03/21 01:36:21;;;;;;;35.28;18.13;;;;;;;7.63;100.00;101948.09;8283684;28;20038;-65
2022/03/21 01:40:21;;;;;;;36.55;18.48;;;;;;;7.69;100.00;101942.38;8277353;28;20495;-65
2022/03/21 01:44:22;;;;;;;36.58;18.40;;;;;;;7.78;100.00;101941.00;8251086;28;20046;-65
2022/03/21 01:48:22;;;;;;;37.50;19.13;;;;;;;7.79;100.00;101940.91;8244453;28;20340;-65
2022/03/21 01:52:22;;;;;;;34.53;18.15;;;;;;;7.76;100.00;101938.41;8252895;28;20505;-65
2022/03/21 01:56:32;;;;;;;37.15;18.35;;;;;;;7.74;100.00;101940.28;8284152;28;20590;-65
2022/03/21 02:00:32;;;;;;;41.50;19.27;;;;;;;7.74;100.00;101940.28;8273509;28;20042;-65
2022/03/21 02:04:34;;;;;;;35.20;18.52;;;;;;;7.60;100.00;101937.50;8251770;28;20069;-65
2022/03/21 02:08:34;;;;;;;41.78;20.50;;;;;;;7.43;100.00;101936.72;8252903;28;20122;-65
2022/03/21 02:12:35;;;;;;;34.70;18.38;;;;;;;6.91;100.00;101936.06;8252360;28;20046;-65
2022/03/21 02:16:37;;;;;;;41.38;20.35;;;;;;;6.83;100.00;101938.28;8250753;28;20376;-65
2022/03/21 02:20:41;;;;;;;37.30;18.88;;;;;;;6.95;100.00;101926.00;8257486;28;20038;-65
2022/03/21 02:25:21;;;;;;;41.78;20.08;;;;;;;6.93;100.00;101928.78;8248977;28;20039;-65
2022/03/21 02:29:25;;;;;;;42.60;20.23;;;;;;;6.95;100.00;101929.56;8252488;28;20133;-65
2022/03/21 02:33:26;;;;;;;41.30;19.42;;;;;;;6.99;100.00;101925.75;8250925;28;20039;-65
2022/03/21 02:37:27;;;;;;;40.35;19.67;;;;;;;7.00;100.00;101919.44;8250591;28;20052;-65
2022/03/21 02:41:27;;;;;;;37.75;19.02;;;;;;;6.66;100.00;101922.19;8252213;28;20038;-64
2022/03/21 02:45:27;;;;;;;34.78;18.70;;;;;;;6.52;100.00;101919.34;8256406;28;20034;-64
2022/03/21 02:49:28;;;;;;;40.15;18.75;;;;;;;6.23;100.00;101911.97;8258296;28;20034;-64
2022/03/21 02:53:32;;;;;;;37.90;18.15;;;;;;;5.98;100.00;101919.53;8288656;28;20108;-64
2022/03/21 02:57:33;;;;;;;49.22;22.80;;;;;;;6.23;100.00;101935.25;8288786;28;20068;-64
2022/03/21 03:01:33;;;;;;;37.25;18.98;;;;;;;6.23;100.00;101925.38;8266077;28;20042;-64
2022/03/21 03:05:33;;;;;;;35.35;18.75;;;;;;;5.99;100.00;101923.94;8262267;28;20041;-64
2022/03/21 03:09:34;;;;;;;40.88;19.98;;;;;;;5.67;100.00;101936.25;8255734;28;20058;-64
2022/03/21 03:13:34;;;;;;;45.70;21.90;;;;;;;5.80;100.00;101936.53;8234877;28;20081;-64
2022/03/21 03:17:35;;;;;;;44.03;21.00;;;;;;;5.98;100.00;101939.16;8255034;28;20046;-64
2022/03/21 03:21:43;;;;;;;46.85;21.65;;;;;;;6.18;100.00;101931.91;8277395;28;20038;-64
2022/03/21 03:25:44;;;;;;;42.90;21.27;;;;;;;6.11;100.00;101931.38;8286695;28;20431;-64
2022/03/21 03:29:45;;;;;;;43.13;21.67;;;;;;;6.04;100.00;101932.66;8288108;28;20066;-64
2022/03/21 03:33:46;;;;;;;44.65;22.15;;;;;;;6.15;100.00;101932.06;8285914;28;20516;-64
2022/03/21 03:37:47;;;;;;;43.30;21.08;;;;;;;6.04;100.00;101936.19;8267312;28;20047;-65
2022/03/21 03:41:48;;;;;;;36.85;18.50;;;;;;;5.84;100.00;101938.13;8243690;28;20038;-65
2022/03/21 03:45:52;;;;;;;42.78;21.05;;;;;;;6.03;100.00;101939.81;8270659;28;20129;-65
2022/03/21 03:49:53;;;;;;;50.25;21.02;;;;;;;5.85;100.00;101945.22;8260313;28;20432;-65
2022/03/21 03:53:53;;;;;;;37.55;20.20;;;;;;;6.00;100.00;101949.84;8286744;28;20042;-65
2022/03/21 03:57:54;;;;;;;43.97;21.75;;;;;;;6.17;100.00;101946.31;8265350;28;20116;-65
2022/03/21 04:01:54;;;;;;;40.67;20.15;;;;;;;6.10;100.00;101940.38;8265672;28;20046;-65
2022/03/21 04:05:54;;;;;;;39.92;20.48;;;;;;;6.25;100.00;101944.97;8285299;28;20045;-65
2022/03/21 04:09:55;;;;;;;37.03;18.60;;;;;;;5.96;100.00;101937.53;8283420;28;20038;-65
2022/03/21 04:13:55;;;;;;;46.65;21.27;;;;;;;5.84;100.00;101938.13;8253766;28;20058;-65
2022/03/21 04:18:00;;;;;;;34.72;18.65;;;;;;;5.61;100.00;101941.03;8254582;28;20046;-65
2022/03/21 04:22:00;;;;;;;43.95;20.67;;;;;;;5.75;100.00;101946.59;8280478;28;20068;-65
2022/03/21 04:26:01;;;;;;;45.28;21.95;;;;;;;5.81;100.00;101944.53;8286319;28;20037;-65
2022/03/21 04:30:02;;;;;;;43.90;20.73;;;;;;;5.83;100.00;101947.13;8285685;28;20088;-65
2022/03/21 04:34:02;;;;;;;44.72;22.45;;;;;;;5.90;100.00;101953.94;8284065;28;20560;-65
2022/03/21 04:38:05;;;;;;;40.75;21.55;;;;;;;5.86;100.00;101946.97;8285595;28;20461;-65
2022/03/21 04:42:06;;;;;;;43.47;21.55;;;;;;;5.76;100.00;101951.00;8264748;28;20495;-65
2022/03/21 04:46:06;;;;;;;56.17;23.33;;;;;;;5.83;100.00;101963.25;8251069;28;20494;-65
2022/03/21 04:50:07;;;;;;;45.33;22.25;;;;;;;5.83;100.00;101953.34;8256276;28;20034;-65
2022/03/21 04:54:07;;;;;;;45.47;21.33;;;;;;;5.58;100.00;101954.63;8277920;28;20040;-65
2022/03/21 04:58:09;;;;;;;45.10;22.25;;;;;;;5.58;100.00;101968.03;8283756;28;20766;-65
2022/03/21 05:02:10;;;;;;;50.40;22.13;;;;;;;5.46;100.00;101968.63;8262185;28;20093;-65
2022/03/21 05:06:12;;;;;;;46.80;20.55;;;;;;;5.44;100.00;101965.13;8245752;28;20083;-65
2022/03/21 05:10:14;;;;;;;48.08;21.98;;;;;;;5.37;100.00;101974.41;8253111;28;20058;-65
2022/03/21 05:14:16;;;;;;;45.90;22.50;;;;;;;5.05;100.00;101977.69;8253481;28;20034;-65
2022/03/21 05:18:16;;;;;;;49.97;23.48;;;;;;;5.25;100.00;101980.34;8253344;28;20133;-65
2022/03/21 05:22:16;;;;;;;50.38;23.83;;;;;;;5.28;100.00;101985.56;8268846;28;20053;-65
2022/03/21 05:31:08;;;;;;;59.40;22.35;;;;;;;4.97;100.00;101985.22;8259119;28;20041;-65
2022/03/21 05:35:58;;;;;;;61.65;24.65;;;;;;;5.16;100.00;101986.13;8246181;28;20073;-65
2022/03/21 05:39:18;;;;;;;56.97;26.25;;;;;;;5.19;100.00;101985.97;8235169;28;20414;-65
2022/03/21 05:43:19;;;;;;;58.83;25.83;;;;;;;5.25;100.00;101996.44;8263210;28;20037;-65
2022/03/21 05:47:20;;;;;;;59.20;25.48;;;;;;;5.28;100.00;102001.66;8282443;28;20074;-65
2022/03/21 05:51:24;;;;;;;68.78;26.95;;;;;;;5.27;100.00;101997.22;8280758;28;20034;-65
2022/03/21 05:55:24;;;;;;;52.80;25.27;;;;;;;5.25;100.00;102007.16;8284178;28;20113;-65
2022/03/21 06:00:25;;;;;;;57.33;25.55;;;;;;;5.20;100.00;101998.44;8257400;28;20046;-65
2022/03/21 06:03:45;;;;;;;55.92;25.00;;;;;;;5.34;100.00;102002.22;8241589;28;20042;-65
2022/03/21 06:07:46;;;;;;;52.60;24.40;;;;;;;5.51;100.00;102012.16;8236641;28;20068;-65
2022/03/21 06:11:50;;;;;;;52.03;23.95;;;;;;;5.08;100.00;102009.72;8252344;28;20089;-65
2022/03/21 06:15:52;;;;;;;56.70;25.02;;;;;;;5.21;100.00;102016.25;8253110;28;20034;-65
2022/03/21 06:19:53;;;;;;;51.15;25.00;;;;;;;5.36;100.00;102018.22;8256736;28;20039;-65
2022/03/21 06:23:53;;;;;;;51.25;24.35;;;;;;;5.47;100.00;102023.97;8257690;28;20026;-65
2022/03/21 06:27:54;;;;;;;48.05;24.45;;;;;;;5.57;100.00;102025.28;8248643;28;20065;-65
2022/03/21 06:31:54;;;;;;;54.60;25.73;;;;;;;5.85;100.00;102036.47;8255426;28;20065;-65
2022/03/21 06:35:56;;;;;;;49.38;23.08;;;;;;;6.21;100.00;102034.69;8257726;28;20491;-65
2022/03/21 06:39:56;;;;;;;38.40;21.38;;;;;;;6.14;100.00;102038.63;8250697;28;20044;-65
2022/03/21 06:43:57;;;;;;;43.63;21.77;;;;;;;6.07;100.00;102042.53;8259239;28;20046;-65
2022/03/21 06:47:58;;;;;;;46.20;22.33;;;;;;;6.11;100.00;102044.16;8249979;28;20077;-65
2022/03/21 06:52:02;;;;;;;46.33;21.45;;;;;;;6.15;100.00;102053.78;8247363;28;20061;-65
2022/03/21 06:56:02;;;;;;;;;;;;;;;6.35;100.00;102059.06;8214615;28;20439;-65
2022/03/21 07:00:05;;;;;;;44.50;23.42;;;;;;;6.53;100.00;102060.81;8214487;28;19926;-65
2022/03/21 07:04:06;;;;;;;52.10;24.45;;;;;;;6.75;100.00;102057.91;8257224;28;20529;-65
2022/03/21 07:08:06;;;;;;;38.88;21.40;;;;;;;6.86;100.00;102060.91;8214374;28;20049;-65
2022/03/21 07:12:07;;;;;;;42.13;21.27;;;;;;;7.11;100.00;102056.84;8207679;28;20091;-65
2022/03/21 07:16:09;;;;;;;50.05;23.27;;;;;;;7.31;100.00;102063.84;8197971;28;20040;-65
2022/03/21 07:20:12;;;;;;;41.97;20.25;;;;;;;7.42;100.00;102062.34;8196145;28;20039;-65
2022/03/21 07:24:13;;;;;;;40.10;20.92;;;;;;;7.62;100.00;102061.22;8212045;28;20471;-65
2022/03/21 07:28:13;;;;;;;36.92;19.50;;;;;;;7.97;100.00;102065.53;8235591;28;20427;-65
2022/03/21 07:32:14;;;;;;;38.83;18.75;;;;;;;8.16;100.00;102062.66;8264362;28;20046;-65
2022/03/21 07:36:15;;;;;;;39.33;18.45;;;;;;;8.30;98.92;102073.56;8242252;28;20148;-65
2022/03/21 07:40:16;;;;;;;44.30;18.08;;;;;;;8.68;99.00;102081.16;8229008;28;20061;-65
2022/03/21 07:47:17;;;;;;;35.47;18.10;;;;;;;8.99;98.58;102083.75;8234291;28;20062;-65
2022/03/21 07:48:37;;;;;;;39.03;18.90;;;;;;;9.19;94.49;102077.16;8226727;28;20069;-65
2022/03/21 07:52:38;;;;;;;37.15;19.00;;;;;;;9.44;95.03;102082.75;8237035;28;20046;-65
2022/03/21 07:56:39;;;;;;;38.65;19.38;;;;;;;9.75;93.05;102093.38;8230212;28;20041;-65
2022/03/21 08:00:41;;;;;;;36.28;17.60;;;;;;;9.77;90.56;102097.75;8245870;28;20065;-65
2022/03/21 08:04:41;;;;;;;36.78;17.90;;;;;;;9.65;89.45;102098.50;8248209;28;20491;-65
2022/03/21 08:08:42;;;;;;;35.45;18.92;;;;;;;10.10;90.00;102094.75;8239750;28;20407;-65
2022/03/21 08:12:42;;;;;;;35.17;18.02;;;;;;;10.27;87.20;102096.34;8252326;28;20058;-65
2022/03/21 08:16:43;;;;;;;41.70;20.23;;;;;;;10.58;87.68;102091.50;8246762;28;20487;-65
2022/03/21 08:20:43;;;;;;;32.60;17.67;;;;;;;10.87;85.06;102082.31;8238673;28;20069;-65
2022/03/21 08:24:44;;;;;;;35.30;17.55;;;;;;;10.80;84.92;102089.09;8246693;28;20041;-65
2022/03/21 08:28:45;;;;;;;33.97;17.70;;;;;;;10.70;83.61;102098.81;8244436;28;20038;-65
2022/03/21 08:32:46;;;;;;;33.60;18.67;;;;;;;11.00;83.04;102095.84;8233136;28;20298;-65
2022/03/21 08:36:47;;;;;;;32.70;18.13;;;;;;;10.96;82.73;102092.50;8229982;28;20049;-65
2022/03/21 08:40:47;;;;;;;34.28;17.77;;;;;;;11.09;83.44;102096.09;8253939;28;20040;-65
2022/03/21 08:44:48;;;;;;;39.33;18.98;;;;;;;11.70;83.76;102096.28;8242196;28;20350;-65
2022/03/21 08:49:49;;;;;;;30.70;18.65;;;;;;;11.83;81.50;102090.84;8225301;28;20466;-65
2022/03/21 08:53:10;;;;;;;42.03;18.98;;;;;;;11.61;81.54;102088.78;8222165;28;20042;-65
2022/03/21 08:57:10;;;;;;;37.53;20.83;;;;;;;12.34;82.36;102097.03;8235487;28;20418;-65
2022/03/21 09:01:11;;;;;;;34.85;18.70;;;;;;;12.50;80.77;102093.06;8235040;28;20061;-65
2022/03/21 09:05:13;;;;;;;33.75;18.55;;;;;;;12.87;79.38;102088.44;8244411;28;20069;-65
2022/03/21 09:09:13;;;;;;;38.45;19.65;;;;;;;13.27;78.51;102089.84;8234754;28;20049;-65
2022/03/21 09:13:15;;;;;;;35.03;18.25;;;;;;;13.57;77.24;102087.41;8237332;28;20046;-65
2022/03/21 09:17:15;;;;;;;34.17;17.70;;;;;;;13.75;74.84;102091.41;8237487;28;20537;-65
2022/03/21 09:21:16;;;;;;;36.17;19.30;;;;;;;14.01;75.07;102086.59;8217088;28;20459;-65
2022/03/21 09:25:17;;;;;;;38.95;19.00;;;;;;;14.22;73.46;102080.28;8235396;28;20125;-65
2022/03/21 09:29:18;;;;;;;33.35;17.92;;;;;;;15.16;69.22;102079.47;8230959;28;20074;-65
2022/03/21 09:33:19;;;;;;;32.42;18.50;;;;;;;16.66;65.20;102084.13;8238253;28;20493;-65
2022/03/21 09:37:19;;;;;;;31.73;17.02;;;;;;;17.39;61.59;102073.44;8236090;28;20064;-65
2022/03/21 09:41:25;;;;;;;30.60;17.23;;;;;;;17.03;60.19;102073.34;8240468;28;20053;-65
2022/03/21 09:45:27;;;;;;;29.48;17.42;;;;;;;17.72;58.66;102071.25;8229519;28;20320;-65
2022/03/21 09:49:30;;;;;;;31.50;17.15;;;;;;;17.90;57.18;102063.97;8211055;28;20048;-65
2022/03/21 09:53:31;;;;;;;30.30;17.83;;;;;;;17.83;57.89;102063.72;8194568;28;20045;-65
2022/03/21 09:57:32;;;;;;;30.50;16.58;;;;;;;18.46;56.47;102057.38;8242629;28;20066;-65
2022/03/21 10:01:33;;;;;;;29.52;18.10;;;;;;;18.28;57.20;102053.69;8263239;28;20049;-65
2022/03/21 10:05:41;;;;;;;32.08;17.13;;;;;;;18.52;55.97;102054.03;8281795;28;20040;-65
2022/03/21 10:09:41;;;;;;;32.45;17.90;;;;;;;19.97;55.60;102049.75;8258376;28;20136;-65
2022/03/21 10:13:43;;;;;;;31.63;17.13;;;;;;;19.80;54.07;102051.53;8255027;28;20046;-65
2022/03/21 10:17:44;;;;;;;27.88;16.95;;;;;;;19.54;54.22;102041.59;8240221;28;20050;-65
2022/03/21 10:22:06;;;;;;;27.08;15.88;;;;;;;20.10;52.91;102047.38;8240163;28;20557;-65
2022/03/21 10:26:28;;;;;;;26.83;17.48;;;;;;;20.11;53.08;102040.84;8246459;28;20038;-65
2022/03/21 10:30:28;;;;;;;26.45;16.23;;;;;;;19.73;54.31;102046.84;8240978;28;20101;-65
2022/03/21 10:34:34;;;;;;;29.60;16.88;;;;;;;20.15;53.88;102040.41;8235266;28;20046;-65
2022/03/21 10:38:35;;;;;;;24.67;16.80;;;;;;;21.31;51.73;102035.63;8228605;28;20259;-65
2022/03/21 10:42:50;;;;;;;29.33;16.40;;;;;;;21.50;52.00;102042.69;8260531;28;21063;-66
2022/03/21 10:47:00;;;;;;;23.98;15.15;;;;;;;22.01;51.42;102029.31;8241303;28;20046;-66
2022/03/21 10:51:02;;;;;;;28.15;15.90;;;;;;;21.82;51.19;102024.22;8236377;28;20043;-66
2022/03/21 10:55:04;;;;;;;22.63;14.23;;;;;;;21.76;49.50;102026.81;8247665;28;20423;-66
2022/03/21 10:59:04;;;;;;;25.58;14.80;;;;;;;21.96;49.93;102015.22;8233723;28;20092;-65
2022/03/21 11:03:09;;;;;;;25.30;15.00;;;;;;;22.01;50.57;102007.28;8269905;28;20491;-65
2022/03/21 11:07:11;;;;;;;28.20;14.82;;;;;;;22.83;49.83;102015.78;8248805;28;20137;-66
2022/03/21 11:11:13;;;;;;;20.27;13.55;;;;;;;23.20;48.79;102007.53;8236153;28;20053;-66
2022/03/21 11:15:14;;;;;;;18.15;11.30;;;;;;;22.74;47.88;102005.84;8251361;28;20247;-64
2022/03/21 11:19:14;;;;;;;18.92;12.60;;;;;;;22.89;48.45;102006.78;8243748;28;20065;-64
2022/03/21 11:23:15;;;;;;;23.50;12.52;;;;;;;22.91;48.60;102015.72;8259077;28;20459;-64
2022/03/21 11:27:51;;;;;;;21.00;12.95;;;;;;;22.93;47.77;102008.13;8228960;28;20415;-64
2022/03/21 11:32:11;;;;;;;24.05;15.30;;;;;;;22.79;46.76;102008.94;8245442;28;20038;-64
2022/03/21 11:36:12;;;;;;;23.42;13.52;;;;;;;22.93;49.13;101999.84;8237311;28;20048;-64
2022/03/21 11:40:38;;;;;;;24.50;14.15;;;;;;;23.55;46.09;101994.13;8242347;28;20368;-64
2022/03/21 11:44:39;;;;;;;24.50;13.65;;;;;;;23.26;45.50;101994.94;8236177;28;20051;-64
2022/03/21 11:48:39;;;;;;;24.40;14.27;;;;;;;23.17;46.69;101990.50;8232451;28;20149;-64
2022/03/21 11:53:08;;;;;;;27.80;14.15;;;;;;;24.13;44.58;101994.13;8234323;28;20038;-64
2022/03/21 11:57:11;;;;;;;23.35;13.68;;;;;;;23.56;45.90;101990.31;8237220;28;20446;-64
2022/03/21 12:01:27;;;;;;;26.30;13.80;;;;;;;23.40;45.22;101984.97;8253473;28;20228;-64
2022/03/21 12:05:50;;;;;;;20.10;13.55;;;;;;;23.69;45.16;101987.75;8235281;28;20039;-64
2022/03/21 12:09:52;;;;;;;24.65;14.93;;;;;;;23.21;46.40;101997.38;8245103;28;20037;-64
2022/03/21 12:14:29;;;;;;;20.92;13.57;;;;;;;23.15;45.71;101982.41;8258461;28;20033;-64
2022/03/21 12:18:58;;;;;;;27.88;14.65;;;;;;;23.34;46.80;101971.91;8256471;28;20645;-64
2022/03/21 12:23:19;;;;;;;22.73;12.60;;;;;;;23.34;44.74;101964.50;8237574;28;20409;-64
2022/03/21 12:27:59;;;;;;;21.90;12.70;;;;;;;22.84;45.71;101948.53;8233972;28;20871;-64
2022/03/21 12:32:24;;;;;;;27.02;14.13;;;;;;;23.37;45.15;101960.50;8224839;28;20057;-64
2022/03/21 12:36:32;;;;;;;17.27;10.18;;;;;;;22.85;45.70;101936.47;8229817;28;20059;-63
2022/03/21 12:40:34;;;;;;;23.02;11.27;;;;;;;23.61;45.41;101940.88;8233204;28;20069;-63
2022/03/21 12:44:40;;;;;;;24.73;12.75;;;;;;;23.02;45.01;101948.19;8210714;28;20062;-63
2022/03/21 12:48:44;;;;;;;19.35;9.98;;;;;;;22.71;46.09;101945.56;8215668;28;20515;-63
2022/03/21 12:52:52;;;;;;;17.65;11.95;;;;;;;22.41;46.07;101940.91;8221288;28;20045;-63
2022/03/21 12:57:04;;;;;;;22.92;11.73;;;;;;;21.50;49.75;101941.69;8244259;28;20073;-63
2022/03/21 13:01:06;;;;;;;16.10;10.30;;;;;;;20.81;49.33;101938.69;8242045;28;20046;-63
2022/03/21 13:10:40;;;;;;;13.38;8.55;;;;;;;19.75;52.69;101938.63;8255948;28;20034;-63
2022/03/21 13:14:02;;;;;;;16.35;9.32;;;;;;;19.88;51.88;101927.19;8244957;28;20046;-63
2022/03/21 13:18:04;;;;;;;12.85;8.38;;;;;;;19.48;52.57;101920.50;8240835;28;20721;-63
2022/03/21 13:22:06;;;;;;;13.07;7.38;;;;;;;19.97;52.44;101915.19;8233501;28;20278;-63
2022/03/21 13:26:10;;;;;;;11.55;6.60;;;;;;;19.83;52.03;101924.06;8239690;28;20081;-63
2022/03/21 13:30:10;;;;;;;12.90;6.82;;;;;;;19.87;52.39;101920.81;8229827;28;20402;-63
2022/03/21 13:34:12;;;;;;;9.80;7.03;;;;;;;19.79;52.73;101918.03;8239435;28;20065;-63
2022/03/21 13:38:21;;;;;;;15.38;7.30;;;;;;;19.76;53.59;101920.28;8241332;28;20465;-63
2022/03/21 13:42:23;;;;;;;12.85;7.00;;;;;;;19.91;53.13;101911.22;8238484;28;20041;-63
2022/03/21 13:46:24;;;;;;;10.07;6.85;;;;;;;19.79;53.77;101911.69;8241676;28;20038;-63
2022/03/21 13:50:30;;;;;;;11.73;7.05;;;;;;;20.03;52.84;101907.13;8241322;28;20053;-63
2022/03/21 13:54:47;;;;;;;10.77;6.50;;;;;;;20.12;52.79;101913.50;8238031;28;20128;-63
2022/03/21 13:58:47;;;;;;;9.50;6.65;;;;;;;19.96;52.23;101897.84;8231598;28;20044;-64
2022/03/21 14:02:48;;;;;;;12.37;7.40;;;;;;;19.78;52.81;101890.75;8232160;28;20070;-64
2022/03/21 14:07:07;;;;;;;14.95;6.93;;;;;;;19.88;52.74;101896.97;8226829;28;20285;-64
2022/03/21 14:11:14;;;;;;;12.40;6.93;;;;;;;19.99;52.52;101886.53;8230350;28;20412;-64
2022/03/21 14:15:15;;;;;;;14.55;6.90;;;;;;;19.95;51.54;101892.53;8240355;28;20037;-64
2022/03/21 14:19:17;;;;;;;9.48;6.30;;;;;;;19.94;52.38;101890.81;8227220;28;20663;-64
2022/03/21 14:23:18;;;;;;;12.75;7.47;;;;;;;19.94;51.92;101888.06;8236426;28;20046;-64
2022/03/21 14:27:19;;;;;;;10.57;7.20;;;;;;;19.83;54.36;101881.00;8243830;28;20498;-64
2022/03/21 14:31:19;;;;;;;17.35;8.93;;;;;;;19.75;53.97;101883.72;8230163;28;20046;-63
2022/03/21 14:35:20;;;;;;;11.15;7.32;;;;;;;19.83;53.73;101880.13;8227546;28;20057;-64
2022/03/21 14:39:20;;;;;;;9.10;5.15;;;;;;;19.73;51.86;101872.03;8232442;28;20054;-64
2022/03/21 14:43:25;;;;;;;9.05;5.70;;;;;;;19.80;51.74;101874.97;8229884;28;20042;-64
2022/03/21 14:47:26;;;;;;;13.15;7.25;;;;;;;19.61;52.56;101875.28;8238919;28;20196;-64
2022/03/21 14:51:26;;;;;;;9.88;5.47;;;;;;;19.69;51.08;101869.78;8248848;28;20046;-64
2022/03/21 14:55:27;;;;;;;8.60;5.68;;;;;;;19.65;50.95;101865.66;8229830;28;20031;-64
2022/03/21 14:59:28;;;;;;;13.32;6.47;;;;;;;19.61;51.06;101869.78;8244800;28;20042;-64
2022/03/21 15:03:29;;;;;;;13.18;6.47;;;;;;;19.62;51.05;101864.13;8240528;28;20038;-64
2022/03/21 15:07:30;;;;;;;12.00;6.10;;;;;;;19.57;49.94;101865.66;8221593;28;20050;-64
2022/03/21 15:11:30;;;;;;;9.57;5.82;;;;;;;19.52;50.30;101865.28;8238004;28;20130;-64
2022/03/21 15:15:31;;;;;;;12.60;6.13;;;;;;;19.52;50.73;101870.78;8245809;28;20121;-64
2022/03/21 15:19:31;;;;;;;14.52;6.25;;;;;;;19.39;51.66;101863.00;8239734;28;20184;-64
2022/03/21 15:23:35;;;;;;;14.68;6.57;;;;;;;19.32;51.68;101867.41;8219754;28;20302;-64
2022/03/21 15:27:35;;;;;;;15.88;7.90;;;;;;;19.36;53.68;101861.44;8213689;28;20093;-64
2022/03/21 15:31:36;;;;;;;15.25;7.68;;;;;;;19.25;52.72;101861.69;8222588;28;20519;-64
2022/03/21 15:35:36;;;;;;;18.27;8.23;;;;;;;19.11;53.68;101859.56;8206798;28;20139;-64
2022/03/21 15:43:57;;;;;;;16.08;7.85;;;;;;;18.91;54.30;101849.84;8234745;28;20625;-64
2022/03/21 15:47:58;;;;;;;14.10;8.55;;;;;;;19.06;53.41;101856.44;8233086;28;20411;-64
2022/03/21 15:51:58;;;;;;;15.05;8.35;;;;;;;18.96;53.68;101852.97;8227856;28;20050;-64
2022/03/21 15:55:58;;;;;;;20.42;7.75;;;;;;;18.91;54.00;101860.81;8227871;28;20522;-64
2022/03/21 16:00:00;;;;;;;11.77;7.50;;;;;;;18.85;53.68;101858.72;8236397;28;20078;-64
2022/03/21 16:04:00;;;;;;;13.35;6.63;;;;;;;18.75;53.63;101859.84;8232796;28;20277;-64
2022/03/21 16:08:01;;;;;;;12.57;7.90;;;;;;;18.65;53.78;101859.97;8240601;28;20070;-64
2022/03/21 16:12:03;;;;;;;16.35;8.07;;;;;;;18.53;54.53;101854.88;8229272;28;20042;-64
2022/03/21 16:16:03;;;;;;;15.90;8.23;;;;;;;18.36;55.34;101853.84;8235953;28;20519;-64
2022/03/21 16:20:06;;;;;;;15.98;8.57;;;;;;;18.20;56.10;101858.34;8238288;28;20054;-64
2022/03/21 16:24:07;;;;;;;14.50;8.32;;;;;;;18.03;56.66;101857.34;8233365;28;20470;-64
2022/03/21 16:28:07;;;;;;;24.27;9.65;;;;;;;17.96;56.99;101850.75;8235214;28;20038;-64
2022/03/21 16:32:09;;;;;;;18.95;9.10;;;;;;;17.82;57.82;101859.50;8241657;28;20069;-64
2022/03/21 16:36:09;;;;;;;18.48;8.10;;;;;;;17.81;56.74;101854.19;8240951;28;20453;-64
2022/03/21 16:40:10;;;;;;;16.75;9.13;;;;;;;17.83;56.98;101855.75;8231935;28;20491;-64
2022/03/21 16:44:11;;;;;;;13.93;8.45;;;;;;;17.81;57.21;101852.28;8222961;28;20558;-64
2022/03/21 16:48:11;;;;;;;18.17;8.95;;;;;;;17.69;57.98;101856.28;8218702;28;20297;-64
2022/03/21 16:52:15;;;;;;;18.08;9.10;;;;;;;17.63;57.82;101851.44;8228424;28;20039;-64
2022/03/21 16:56:15;;;;;;;16.70;8.70;;;;;;;17.59;57.75;101859.06;8242965;28;20558;-65
2022/03/21 17:00:16;;;;;;;16.23;8.60;;;;;;;17.52;57.95;101859.84;8233677;28;20471;-65
2022/03/21 17:04:16;;;;;;;16.05;8.32;;;;;;;17.55;57.20;101859.53;8225932;28;20120;-65
2022/03/21 17:08:17;;;;;;;14.23;8.23;;;;;;;17.40;58.16;101859.16;8232901;28;20068;-65
2022/03/21 17:12:17;;;;;;;19.90;8.75;;;;;;;17.21;58.52;101858.38;8231632;28;20469;-65
2022/03/21 17:16:18;;;;;;;12.82;8.38;;;;;;;17.18;58.49;101864.16;8225072;28;20053;-65
2022/03/21 17:24:40;;;;;;;21.48;8.98;;;;;;;16.98;58.91;101867.94;8228089;28;20070;-65
2022/03/21 17:28:41;;;;;;;17.30;8.73;;;;;;;16.84;59.29;101876.63;8234209;28;20550;-65
2022/03/21 17:32:41;;;;;;;18.05;9.05;;;;;;;16.75;59.12;101881.13;8228860;28;20510;-65
2022/03/21 17:36:43;;;;;;;21.30;9.50;;;;;;;16.69;59.63;101883.56;8235754;28;20136;-65
2022/03/21 17:40:44;;;;;;;16.17;9.25;;;;;;;16.58;59.44;101887.31;8224609;28;20108;-65
2022/03/21 17:44:46;;;;;;;21.95;9.98;;;;;;;16.50;59.72;101891.78;8225521;28;20056;-65
2022/03/21 17:48:46;;;;;;;17.58;9.63;;;;;;;16.36;59.77;101889.47;8231471;28;20050;-65
2022/03/21 17:52:46;;;;;;;19.98;9.80;;;;;;;16.34;60.10;101894.19;8256914;28;20165;-65
2022/03/21 17:56:48;;;;;;;20.17;9.50;;;;;;;16.30;59.99;101892.75;8235794;28;20050;-65
2022/03/21 18:00:48;;;;;;;19.98;10.18;;;;;;;16.33;59.73;101897.94;8244282;28;20046;-65
2022/03/21 18:04:49;;;;;;;15.13;9.45;;;;;;;16.22;59.97;101898.09;8221569;28;20054;-65
2022/03/21 18:08:49;;;;;;;21.80;10.50;;;;;;;16.13;60.16;101901.69;8224256;28;20545;-65
2022/03/21 18:12:51;;;;;;;21.60;10.90;;;;;;;15.96;60.72;101910.56;8208872;28;20380;-65
2022/03/21 18:16:51;;;;;;;25.42;12.13;;;;;;;15.43;63.18;101919.03;8235706;28;20116;-65
2022/03/21 18:20:54;;;;;;;19.88;10.88;;;;;;;15.09;64.76;101920.25;8253712;28;20115;-65
2022/03/21 18:24:56;;;;;;;20.05;11.45;;;;;;;15.13;64.42;101921.72;8231809;28;20042;-65
2022/03/21 18:28:56;;;;;;;21.05;11.60;;;;;;;15.23;63.76;101914.47;8232763;28;20054;-65
2022/03/21 18:32:57;;;;;;;20.70;10.95;;;;;;;15.21;63.75;101930.09;8231217;28;20129;-65
2022/03/21 18:36:58;;;;;;;19.60;11.75;;;;;;;14.96;64.59;101916.03;8231950;28;20054;-65
2022/03/21 18:40:58;;;;;;;27.60;12.07;;;;;;;14.80;64.99;101924.69;8234513;28;20045;-65
2022/03/21 18:45:01;;;;;;;21.20;11.93;;;;;;;14.65;65.79;101920.56;8244241;28;20462;-65
2022/03/21 18:49:01;;;;;;;22.40;12.32;;;;;;;14.23;67.96;101935.13;8221678;28;20279;-65